createdAt,value
2023-08-21T00:01:57.443Z,14.70
2023-08-21T00:04:27.401Z,15.40
2023-08-21T00:07:02.751Z,12.70
2023-08-21T00:09:30.171Z,11.63
2023-08-21T00:12:00.234Z,11.80
2023-08-21T00:14:28.203Z,15.18
2023-08-21T00:16:59.386Z,12.32
2023-08-21T00:19:27.657Z,12.98
2023-08-21T00:21:58.947Z,12.75
2023-08-21T00:24:39.110Z,11.45
2023-08-21T00:27:06.882Z,11.77
2023-08-21T00:29:34.196Z,12.10
2023-08-21T00:32:01.699Z,13.55
2023-08-21T00:34:29.055Z,18.00
2023-08-21T00:36:56.574Z,13.05
2023-08-21T00:39:24.089Z,12.07
2023-08-21T00:41:52.601Z,13.07
2023-08-21T00:44:20.033Z,12.63
2023-08-21T00:46:48.887Z,12.25
2023-08-21T00:49:17.642Z,13.43
2023-08-21T00:51:48.326Z,12.55
2023-08-21T00:54:15.752Z,12.82
2023-08-21T00:56:43.624Z,13.23
2023-08-21T00:59:13.822Z,12.43
2023-08-21T01:01:42.492Z,12.60
2023-08-21T01:04:11.837Z,13.55
2023-08-21T01:06:39.601Z,12.60
2023-08-21T01:09:32.535Z,14.20
2023-08-21T01:12:23.948Z,18.00
2023-08-21T01:14:54.920Z,13.63
2023-08-21T01:17:25.339Z,13.70
2023-08-21T01:19:54.399Z,13.98
2023-08-21T01:22:37.773Z,13.82
2023-08-21T01:25:07.741Z,13.00
2023-08-21T01:27:36.733Z,14.07
2023-08-21T01:30:05.749Z,13.45
2023-08-21T01:32:55.094Z,13.00
2023-08-21T01:35:23.976Z,15.38
2023-08-21T01:37:52.844Z,12.48
2023-08-21T01:40:25.980Z,13.15
2023-08-21T01:42:54.917Z,14.02
2023-08-21T01:45:23.091Z,13.13
2023-08-21T01:47:52.593Z,14.02
2023-08-21T01:50:19.978Z,13.45
2023-08-21T01:52:47.797Z,13.88
2023-08-21T01:55:15.932Z,12.95
2023-08-21T01:57:43.667Z,13.70
2023-08-21T02:00:12.060Z,13.40
2023-08-21T02:02:42.988Z,13.43
2023-08-21T02:05:10.885Z,13.07
2023-08-21T02:07:40.180Z,13.63
2023-08-21T02:10:08.120Z,13.30
2023-08-21T02:12:38.813Z,13.43
2023-08-21T02:15:09.235Z,13.90
2023-08-21T02:17:36.899Z,14.00
2023-08-21T02:20:07.988Z,14.93
2023-08-21T02:22:36.857Z,13.65
2023-08-21T02:25:04.565Z,14.20
2023-08-21T02:27:32.220Z,14.10
2023-08-21T02:29:59.658Z,14.90
2023-08-21T02:32:28.023Z,13.90
2023-08-21T02:34:55.415Z,14.73
2023-08-21T02:37:22.985Z,13.95
2023-08-21T02:39:50.246Z,15.70
2023-08-21T02:42:17.960Z,14.38
2023-08-21T02:44:45.300Z,14.80
2023-08-21T02:47:12.839Z,14.10
2023-08-21T02:49:40.648Z,15.02
2023-08-21T02:52:08.316Z,15.48
2023-08-21T02:54:35.734Z,14.25
2023-08-21T02:57:04.140Z,14.13
2023-08-21T02:59:32.822Z,14.85
2023-08-21T03:02:03.363Z,15.10
2023-08-21T03:04:30.996Z,13.70
2023-08-21T03:06:58.679Z,14.13
2023-08-21T03:09:26.060Z,14.88
2023-08-21T03:11:55.813Z,15.15
2023-08-21T03:14:23.035Z,13.63
2023-08-21T03:16:50.768Z,14.45
2023-08-21T03:19:18.196Z,14.35
2023-08-21T03:21:45.821Z,22.70
2023-08-21T03:24:13.414Z,17.55
2023-08-21T03:26:41.197Z,15.23
2023-08-21T03:29:08.573Z,14.68
2023-08-21T03:31:37.290Z,14.88
2023-08-21T03:34:04.730Z,20.77
2023-08-21T03:36:32.932Z,15.77
2023-08-21T03:39:02.521Z,16.52
2023-08-21T03:41:32.938Z,14.45
2023-08-21T03:44:01.412Z,15.25
2023-08-21T03:46:29.049Z,16.30
2023-08-21T03:48:57.961Z,15.68
2023-08-21T03:51:25.764Z,15.68
2023-08-21T03:53:53.382Z,14.35
2023-08-21T03:56:23.579Z,14.88
2023-08-21T03:58:50.897Z,14.95
2023-08-21T04:01:21.201Z,15.43
2023-08-21T04:03:48.990Z,14.43
2023-08-21T04:06:17.764Z,14.07
2023-08-21T04:08:46.365Z,15.15
2023-08-21T04:11:16.031Z,15.80
2023-08-21T04:13:44.532Z,16.20
2023-08-21T04:16:13.367Z,14.68
2023-08-21T04:18:42.653Z,15.85
2023-08-21T04:21:13.850Z,15.80
2023-08-21T04:23:41.266Z,15.25
2023-08-21T04:26:09.229Z,15.25
2023-08-21T04:28:37.537Z,16.00
2023-08-21T04:31:08.825Z,16.00
2023-08-21T04:33:36.535Z,18.20
2023-08-21T04:36:05.253Z,16.20
2023-08-21T04:38:32.767Z,16.23
2023-08-21T04:41:09.415Z,16.65
2023-08-21T04:43:39.780Z,16.58
2023-08-21T04:46:10.258Z,16.38
2023-08-21T04:48:40.663Z,17.30
2023-08-21T04:51:08.448Z,16.70
2023-08-21T04:53:37.218Z,16.02
2023-08-21T04:56:08.236Z,15.80
2023-08-21T04:58:36.823Z,15.75
2023-08-21T05:01:06.469Z,15.50
2023-08-21T05:03:52.843Z,16.27
2023-08-21T05:06:21.254Z,16.33
2023-08-21T05:08:48.839Z,15.38
2023-08-21T05:11:16.834Z,16.90
2023-08-21T05:13:44.698Z,14.57
2023-08-21T05:16:14.740Z,14.43
2023-08-21T05:18:43.058Z,15.35
2023-08-21T05:21:11.404Z,15.77
2023-08-21T05:23:39.351Z,15.43
2023-08-21T05:26:09.632Z,15.10
2023-08-21T05:28:36.932Z,15.45
2023-08-21T05:31:04.549Z,16.55
2023-08-21T05:33:45.406Z,16.15
2023-08-21T05:36:13.430Z,15.73
2023-08-21T05:38:40.691Z,17.42
2023-08-21T05:41:08.218Z,15.27
2023-08-21T05:43:38.197Z,15.15
2023-08-21T05:46:10.086Z,15.38
2023-08-21T05:48:38.950Z,15.75
2023-08-21T05:51:08.460Z,16.42
2023-08-21T05:53:37.520Z,16.45
2023-08-21T05:56:07.126Z,17.20
2023-08-21T05:58:34.737Z,15.40
2023-08-21T06:01:02.481Z,15.52
2023-08-21T06:03:32.981Z,18.15
2023-08-21T06:06:09.257Z,19.48
2023-08-21T06:08:36.772Z,19.42
2023-08-21T06:11:04.422Z,17.42
2023-08-21T06:13:32.031Z,18.98
2023-08-21T06:16:00.640Z,19.92
2023-08-21T06:18:28.731Z,18.42
2023-08-21T06:20:58.794Z,19.67
2023-08-21T06:23:26.338Z,19.05
2023-08-21T06:25:54.491Z,18.27
2023-08-21T06:28:24.654Z,18.33
2023-08-21T06:31:04.750Z,17.58
2023-08-21T06:33:35.196Z,15.32
2023-08-21T06:36:04.508Z,14.15
2023-08-21T06:38:32.078Z,14.38
2023-08-21T06:41:02.433Z,16.35
2023-08-21T06:43:33.140Z,17.98
2023-08-21T06:46:01.317Z,17.55
2023-08-21T06:48:29.163Z,15.05
2023-08-21T06:50:56.767Z,14.25
2023-08-21T06:53:25.718Z,16.08
2023-08-21T06:55:53.361Z,15.10
2023-08-21T06:58:20.682Z,14.63
2023-08-21T07:00:49.715Z,14.98
2023-08-21T07:03:17.491Z,11.52
2023-08-21T07:05:49.152Z,11.60
2023-08-21T07:08:16.603Z,12.88
2023-08-21T07:10:44.305Z,12.27
2023-08-21T07:13:11.589Z,11.80
2023-08-21T07:15:39.201Z,28.75
2023-08-21T07:18:06.683Z,14.43
2023-08-21T07:20:34.628Z,11.43
2023-08-21T07:23:03.493Z,12.98
2023-08-21T07:25:31.490Z,13.00
2023-08-21T07:28:01.192Z,14.88
2023-08-21T07:30:29.598Z,14.30
2023-08-21T07:32:58.022Z,11.43
2023-08-21T07:35:26.943Z,15.00
2023-08-21T07:37:56.102Z,12.05
2023-08-21T07:40:24.140Z,11.75
2023-08-21T07:42:52.481Z,12.90
2023-08-21T07:45:20.201Z,10.95
2023-08-21T07:47:55.186Z,12.02
2023-08-21T07:50:29.246Z,12.52
2023-08-21T07:52:56.594Z,12.68
2023-08-21T07:55:24.963Z,11.70
2023-08-21T07:57:52.858Z,13.18
2023-08-21T08:00:21.993Z,12.00
2023-08-21T08:02:50.979Z,13.20
2023-08-21T08:05:19.853Z,13.27
2023-08-21T08:07:49.134Z,13.05
2023-08-21T08:10:17.953Z,12.18
2023-08-21T08:12:46.436Z,12.98
2023-08-21T08:15:14.248Z,12.52
2023-08-21T08:17:41.578Z,13.57
2023-08-21T08:20:10.302Z,12.95
2023-08-21T08:22:38.016Z,12.55
2023-08-21T08:25:07.282Z,36.17
2023-08-21T08:27:34.523Z,13.15
2023-08-21T08:30:02.239Z,12.40
2023-08-21T08:32:29.578Z,20.90
2023-08-21T08:34:57.180Z,12.35
2023-08-21T08:37:25.622Z,12.20
2023-08-21T08:39:54.546Z,10.52
2023-08-21T08:42:22.071Z,11.32
2023-08-21T08:44:50.904Z,12.40
2023-08-21T08:47:20.225Z,12.25
2023-08-21T08:49:50.258Z,11.30
2023-08-21T08:52:21.649Z,11.32
2023-08-21T08:54:49.950Z,11.77
2023-08-21T08:57:17.325Z,12.52
2023-08-21T08:59:44.904Z,12.35
2023-08-21T09:02:12.985Z,11.60
2023-08-21T09:04:40.713Z,13.27
2023-08-21T09:07:12.440Z,11.73
2023-08-21T09:09:41.604Z,10.90
2023-08-21T09:12:12.606Z,9.70
2023-08-21T09:14:44.965Z,10.43
2023-08-21T09:17:13.278Z,11.07
2023-08-21T09:19:41.269Z,9.85
2023-08-21T09:22:13.942Z,11.15
2023-08-21T09:24:43.514Z,11.70
2023-08-21T09:27:18.098Z,10.63
2023-08-21T09:29:47.646Z,12.13
2023-08-21T09:32:17.237Z,11.35
2023-08-21T09:34:44.971Z,10.63
2023-08-21T09:37:12.248Z,9.48
2023-08-21T09:39:39.910Z,9.95
2023-08-21T09:42:08.814Z,17.20
2023-08-21T09:44:38.455Z,11.48
2023-08-21T09:47:09.165Z,10.77
2023-08-21T09:49:38.902Z,9.23
2023-08-21T09:52:08.010Z,10.13
2023-08-21T09:54:35.817Z,10.75
2023-08-21T09:57:05.258Z,10.63
2023-08-21T09:59:33.369Z,16.83
2023-08-21T10:02:04.325Z,9.05
2023-08-21T10:04:36.052Z,14.38
2023-08-21T10:07:07.223Z,11.70
2023-08-21T10:09:35.459Z,12.07
2023-08-21T10:12:04.152Z,8.80
2023-08-21T10:14:31.957Z,8.60
2023-08-21T10:16:59.545Z,7.22
2023-08-21T10:19:33.175Z,7.10
2023-08-21T10:22:01.195Z,7.30
2023-08-21T10:24:41.914Z,8.70
2023-08-21T10:27:09.960Z,8.57
2023-08-21T10:29:40.072Z,8.95
2023-08-21T10:32:08.463Z,8.15
2023-08-21T10:34:39.194Z,6.88
2023-08-21T10:37:11.726Z,8.68
2023-08-21T10:39:41.318Z,7.88
2023-08-21T10:42:15.472Z,6.82
2023-08-21T10:44:43.488Z,6.80
2023-08-21T10:47:16.050Z,8.27
2023-08-21T10:49:54.709Z,6.90
2023-08-21T10:52:26.968Z,6.75
2023-08-21T10:54:56.979Z,17.73
2023-08-21T10:57:26.100Z,6.97
2023-08-21T10:59:54.793Z,8.57
2023-08-21T11:02:24.991Z,6.22
2023-08-21T11:04:53.498Z,7.15
2023-08-21T11:07:20.849Z,6.97
2023-08-21T11:09:49.972Z,9.20
2023-08-21T11:12:22.755Z,6.97
2023-08-21T11:14:51.047Z,7.00
2023-08-21T11:17:20.032Z,6.05
2023-08-21T11:19:49.842Z,5.90
2023-08-21T11:22:17.547Z,6.00
2023-08-21T11:24:47.981Z,6.43
2023-08-21T11:27:17.910Z,8.77
2023-08-21T11:29:51.257Z,5.93
2023-08-21T11:32:20.891Z,7.03
2023-08-21T11:34:51.118Z,6.68
2023-08-21T11:37:20.781Z,9.55
2023-08-21T11:39:53.205Z,6.47
2023-08-21T11:42:22.599Z,6.95
2023-08-21T11:44:54.229Z,6.88
2023-08-21T11:47:23.229Z,6.47
2023-08-21T11:49:52.326Z,6.68
2023-08-21T11:52:26.678Z,6.40
2023-08-21T11:54:55.772Z,5.78
2023-08-21T11:57:23.106Z,6.85
2023-08-21T11:59:52.882Z,5.85
2023-08-21T12:02:24.597Z,5.35
2023-08-21T12:05:06.776Z,5.53
2023-08-21T12:07:35.088Z,5.53
2023-08-21T12:10:02.903Z,5.88
2023-08-21T12:12:30.149Z,6.30
2023-08-21T12:14:58.083Z,6.82
2023-08-21T12:17:25.384Z,7.63
2023-08-21T12:19:53.022Z,6.75
2023-08-21T12:22:21.268Z,6.18
2023-08-21T12:24:49.008Z,6.65
2023-08-21T12:27:17.692Z,5.97
2023-08-21T12:29:46.488Z,6.45
2023-08-21T12:32:15.738Z,5.65
2023-08-21T12:34:43.444Z,10.23
2023-08-21T12:37:10.781Z,25.05
2023-08-21T12:39:38.819Z,6.20
2023-08-21T12:42:06.435Z,5.20
2023-08-21T12:47:06.474Z,6.57
2023-08-21T12:49:34.936Z,6.00
2023-08-21T12:52:02.209Z,5.70
2023-08-21T12:54:29.950Z,5.40
2023-08-21T12:56:57.912Z,5.03
2023-08-21T12:59:25.611Z,5.70
2023-08-21T13:01:55.519Z,5.30
2023-08-21T13:04:23.146Z,5.47
2023-08-21T13:06:50.472Z,5.70
2023-08-21T13:09:18.097Z,5.10
2023-08-21T13:11:45.377Z,5.65
2023-08-21T13:14:13.013Z,5.90
2023-08-21T13:16:40.291Z,5.35
2023-08-21T13:19:07.864Z,4.85
2023-08-21T13:21:35.135Z,6.72
2023-08-21T13:24:03.915Z,5.32
2023-08-21T13:26:32.659Z,5.05
2023-08-21T13:29:00.898Z,5.90
2023-08-21T13:31:30.041Z,5.47
2023-08-21T13:33:57.738Z,4.95
2023-08-21T13:36:25.461Z,4.68
2023-08-21T13:38:57.191Z,4.85
2023-08-21T13:41:25.722Z,4.40
2023-08-21T13:43:55.367Z,5.13
2023-08-21T13:46:23.051Z,5.25
2023-08-21T13:48:50.621Z,5.22
2023-08-21T13:51:20.609Z,4.43
2023-08-21T13:53:49.729Z,4.45
2023-08-21T13:56:17.032Z,4.70
2023-08-21T13:58:44.566Z,4.90
2023-08-21T14:01:11.844Z,4.47
2023-08-21T14:03:39.640Z,4.80
2023-08-21T14:06:07.266Z,4.95
2023-08-21T14:08:34.925Z,6.53
2023-08-21T14:11:02.238Z,5.15
2023-08-21T14:13:30.009Z,5.38
2023-08-21T14:15:57.294Z,5.15
2023-08-21T14:18:24.936Z,5.45
2023-08-21T14:20:52.451Z,4.78
2023-08-21T14:23:20.157Z,6.70
2023-08-21T14:25:47.390Z,4.43
2023-08-21T14:28:14.994Z,5.05
2023-08-21T14:30:42.860Z,5.20
2023-08-21T14:33:10.526Z,5.13
2023-08-21T14:35:37.948Z,6.25
2023-08-21T14:38:05.649Z,6.80
2023-08-21T14:40:33.184Z,5.20
2023-08-21T14:43:00.946Z,5.97
2023-08-21T14:45:28.379Z,5.65
2023-08-21T14:47:56.018Z,4.93
2023-08-21T14:50:23.490Z,5.32
2023-08-21T14:52:51.314Z,5.15
2023-08-21T14:55:18.589Z,6.88
2023-08-21T14:57:46.305Z,5.03
2023-08-21T15:00:18.237Z,5.47
2023-08-21T15:02:46.094Z,4.43
2023-08-21T15:05:16.382Z,4.85
2023-08-21T15:07:44.658Z,5.00
2023-08-21T15:10:12.159Z,4.75
2023-08-21T15:12:40.062Z,5.10
2023-08-21T15:15:07.987Z,4.97
2023-08-21T15:17:36.630Z,5.22
2023-08-21T15:20:08.534Z,4.68
2023-08-21T15:22:36.452Z,4.78
2023-08-21T15:25:04.583Z,5.40
2023-08-21T15:27:32.371Z,5.45
2023-08-21T15:29:59.764Z,4.93
2023-08-21T15:32:27.425Z,4.80
2023-08-21T15:34:54.936Z,8.27
2023-08-21T15:37:22.656Z,5.30
2023-08-21T15:39:50.125Z,5.25
2023-08-21T15:42:17.640Z,6.10
2023-08-21T15:44:44.993Z,6.55
2023-08-21T15:47:41.288Z,6.25
2023-08-21T15:49:59.898Z,5.35
2023-08-21T15:52:27.445Z,6.20
2023-08-21T15:54:54.732Z,7.65
2023-08-21T15:57:22.617Z,8.10
2023-08-21T15:59:50.041Z,6.10
2023-08-21T16:02:17.890Z,6.03
2023-08-21T16:04:45.497Z,5.45
2023-08-21T16:07:13.094Z,5.13
2023-08-21T16:09:41.408Z,5.05
2023-08-21T16:12:08.976Z,5.13
2023-08-21T16:14:36.512Z,5.35
2023-08-21T16:17:04.210Z,6.40
2023-08-21T16:19:31.464Z,6.00
2023-08-21T16:21:59.270Z,7.05
2023-08-21T16:24:27.520Z,6.30
2023-08-21T16:26:55.336Z,5.43
2023-08-21T16:29:24.156Z,6.20
2023-08-21T16:31:52.320Z,6.75
2023-08-21T16:34:20.409Z,6.03
2023-08-21T16:36:48.061Z,5.93
2023-08-21T16:39:16.180Z,6.88
2023-08-21T16:41:44.102Z,6.53
2023-08-21T16:44:11.505Z,6.40
2023-08-21T16:46:39.188Z,6.68
2023-08-21T16:49:07.161Z,6.50
2023-08-21T16:51:34.835Z,6.80
2023-08-21T16:54:02.169Z,7.57
2023-08-21T16:56:29.826Z,8.18
2023-08-21T16:58:57.038Z,7.85
2023-08-21T17:01:25.063Z,7.97
2023-08-21T17:03:52.500Z,6.95
2023-08-21T17:06:20.178Z,8.15
2023-08-21T17:08:47.408Z,7.30
2023-08-21T17:11:15.101Z,8.27
2023-08-21T17:13:42.348Z,7.70
2023-08-21T17:16:10.982Z,7.32
2023-08-21T17:18:38.635Z,7.50
2023-08-21T17:21:09.816Z,6.95
2023-08-21T17:23:37.124Z,7.93
2023-08-21T17:26:04.860Z,7.85
2023-08-21T17:28:32.546Z,8.60
2023-08-21T17:31:03.758Z,7.60
2023-08-21T17:33:31.092Z,8.13
2023-08-21T17:35:58.868Z,7.75
2023-08-21T17:38:26.457Z,12.88
2023-08-21T17:40:54.202Z,13.57
2023-08-21T17:43:23.576Z,10.70
2023-08-21T17:45:56.932Z,15.55
2023-08-21T17:48:24.358Z,14.77
2023-08-21T17:50:52.216Z,13.10
2023-08-21T17:53:19.597Z,11.85
2023-08-21T17:55:47.130Z,11.32
2023-08-21T17:58:14.497Z,12.95
2023-08-21T18:00:43.290Z,12.65
2023-08-21T18:03:12.524Z,12.75
2023-08-21T18:05:40.210Z,13.07
2023-08-21T18:08:07.537Z,12.13
2023-08-21T18:10:35.390Z,9.93
2023-08-21T18:13:04.485Z,19.77
2023-08-21T18:15:35.979Z,20.30
2023-08-21T18:18:05.185Z,25.27
2023-08-21T18:20:51.243Z,29.48
2023-08-21T18:23:25.857Z,38.17
2023-08-21T18:25:55.502Z,38.45
2023-08-21T18:28:25.955Z,32.20
2023-08-21T18:30:59.096Z,21.52
2023-08-21T18:33:27.633Z,19.05
2023-08-21T18:35:56.244Z,19.23
2023-08-21T18:38:24.475Z,15.77
2023-08-21T18:40:54.067Z,23.65
2023-08-21T18:43:29.801Z,22.17
2023-08-21T18:45:57.932Z,23.70
2023-08-21T18:48:25.357Z,25.02
2023-08-21T18:50:53.774Z,26.52
2023-08-21T18:53:22.527Z,27.23
2023-08-21T18:55:50.352Z,30.55
2023-08-21T18:58:18.883Z,29.02
2023-08-21T19:00:46.678Z,31.85
2023-08-21T19:03:15.648Z,20.83
2023-08-21T19:05:43.602Z,22.27
2023-08-21T19:08:10.997Z,25.08
2023-08-21T19:10:38.579Z,28.48
2023-08-21T19:13:08.462Z,26.33
2023-08-21T19:15:36.664Z,27.20
2023-08-21T19:18:05.461Z,25.20
2023-08-21T19:20:33.780Z,29.52
2023-08-21T19:23:01.888Z,30.52
2023-08-21T19:25:30.130Z,26.35
2023-08-21T19:27:58.975Z,23.50
2023-08-21T19:30:26.646Z,19.42
2023-08-21T19:32:53.994Z,16.15
2023-08-21T19:35:24.784Z,17.98
2023-08-21T19:37:52.030Z,15.35
2023-08-21T19:40:22.562Z,16.42
2023-08-21T19:42:50.109Z,16.80
2023-08-21T19:45:20.767Z,16.50
2023-08-21T19:47:48.555Z,15.80
2023-08-21T19:50:16.426Z,16.38
2023-08-21T19:52:44.414Z,15.55
2023-08-21T19:55:14.858Z,16.73
2023-08-21T19:57:46.649Z,15.27
2023-08-21T20:00:19.442Z,15.93
2023-08-21T20:02:47.692Z,18.77
2023-08-21T20:05:16.983Z,24.63
2023-08-21T20:07:46.810Z,26.80
2023-08-21T20:10:18.084Z,22.00
2023-08-21T20:12:45.980Z,19.42
2023-08-21T20:15:14.375Z,23.00
2023-08-21T20:17:41.985Z,34.58
2023-08-21T20:20:13.884Z,26.27
2023-08-21T20:22:42.899Z,20.40
2023-08-21T20:25:12.452Z,18.55
2023-08-21T20:27:40.108Z,17.38
2023-08-21T20:30:08.424Z,16.08
2023-08-21T20:32:36.306Z,15.70
2023-08-21T20:35:04.622Z,16.92
2023-08-21T20:37:33.107Z,13.65
2023-08-21T20:40:01.609Z,14.13
2023-08-21T20:42:35.471Z,13.18
2023-08-21T20:45:05.879Z,15.43
2023-08-21T20:47:33.982Z,13.25
2023-08-21T20:50:03.257Z,13.05
2023-08-21T20:52:31.707Z,14.55
2023-08-21T20:54:59.979Z,14.95
2023-08-21T20:57:27.380Z,17.50
2023-08-21T20:59:56.078Z,16.50
2023-08-21T21:02:24.368Z,16.30
2023-08-21T21:04:57.485Z,17.10
2023-08-21T21:07:24.899Z,15.68
2023-08-21T21:09:52.657Z,16.42
2023-08-21T21:12:19.994Z,16.17
2023-08-21T21:14:48.824Z,15.82
2023-08-21T21:17:16.227Z,14.52
2023-08-21T21:19:43.833Z,13.80
2023-08-21T21:22:12.915Z,13.95
2023-08-21T21:24:40.569Z,13.55
2023-08-21T21:27:07.904Z,13.25
2023-08-21T21:29:37.376Z,14.52
2023-08-21T21:32:05.269Z,13.77
2023-08-21T21:34:33.710Z,14.50
2023-08-21T21:37:01.059Z,14.27
2023-08-21T21:39:28.692Z,13.48
2023-08-21T21:41:56.794Z,13.73
2023-08-21T21:44:25.915Z,14.43
2023-08-21T21:46:53.319Z,12.48
2023-08-21T21:49:20.918Z,13.95
2023-08-21T21:51:50.313Z,12.70
2023-08-21T21:54:18.078Z,12.70
2023-08-21T21:56:45.364Z,13.80
2023-08-21T21:59:13.812Z,12.70
2023-08-21T22:01:43.459Z,14.15
2023-08-21T22:04:11.699Z,13.60
2023-08-21T22:06:41.216Z,15.02
2023-08-21T22:09:09.337Z,15.68
2023-08-21T22:11:36.698Z,14.55
2023-08-21T22:14:07.586Z,26.35
2023-08-21T22:16:35.055Z,59.15
2023-08-21T22:19:03.985Z,52.35
2023-08-21T22:21:32.505Z,44.20
2023-08-21T22:24:00.340Z,25.25
2023-08-21T22:26:27.535Z,23.40
2023-08-21T22:28:55.132Z,25.30
2023-08-21T22:31:31.885Z,28.58
2023-08-21T22:34:07.784Z,23.90
2023-08-21T22:36:35.164Z,24.48
2023-08-21T22:39:03.844Z,24.25
2023-08-21T22:41:31.455Z,24.60
2023-08-21T22:44:17.833Z,23.25
2023-08-21T22:46:45.515Z,19.90
2023-08-21T22:49:16.035Z,20.88
2023-08-21T22:51:43.423Z,19.23
2023-08-21T22:54:11.038Z,19.63
2023-08-21T22:56:38.428Z,17.58
2023-08-21T22:59:06.477Z,16.08
2023-08-21T23:01:34.277Z,14.38
2023-08-21T23:04:02.244Z,12.25
2023-08-21T23:06:30.191Z,15.25
2023-08-21T23:09:00.204Z,13.18
2023-08-21T23:11:27.477Z,12.55
2023-08-21T23:13:55.498Z,12.52
2023-08-21T23:16:22.849Z,13.57
2023-08-21T23:18:51.490Z,13.60
2023-08-21T23:21:18.934Z,14.80
2023-08-21T23:23:46.593Z,14.73
2023-08-21T23:26:13.873Z,15.05
2023-08-21T23:28:43.156Z,15.15
2023-08-21T23:31:11.879Z,14.93
2023-08-21T23:33:39.663Z,14.27
2023-08-21T23:36:07.527Z,13.75
2023-08-21T23:38:35.851Z,15.60
2023-08-21T23:41:04.423Z,13.98
2023-08-21T23:43:32.061Z,15.50
2023-08-21T23:46:00.468Z,15.15
2023-08-21T23:48:30.098Z,14.07
2023-08-21T23:50:57.623Z,14.30
2023-08-21T23:53:25.182Z,19.45
2023-08-21T23:55:54.503Z,19.20
2023-08-21T23:58:22.063Z,17.52
